Who's Online

We have 205 guests online

Aviation WX

[source: ADDS]
METAR
KIAD 300652Z 19007KT 10SM FEW045 BKN085 OVC100 06/M10 A3002 RMK AO2 SLP166 T00561100 =
TAF
KIAD 300541Z 3006/3112 18010G15KT P6SM SCT010 BKN050 WS020/22040KT FM300900 19009KT 6SM -RA OVC040 FM301100 20010KT P6SM OVC040 FM301600 26011G18KT P6SM SCT250 FM310000 29008KT P6SM FEW050 FM310800 23005KT P6SM SCT250 =
SR / SS: 00:39 / 13:13 UTC (Washington-Dulles 2015-03-30)

JoomlaWatch Agent

Home Products and Services

This section describes Multilink Systems products and services

 

 

Under construction Please Standby